Time;durP1;ratioP1;P1;durP2;ratioP2;P2;SDS_P1;SDS_P2;PMS_P1;PMS_P2;Temp;Humidity;BMP_temperature;BMP_pressure;BME280_temperature;BME280_humidity;BME280_pressure;Samples;Min_cycle;Max_cycle;Signal;HPM_P1;HPM_P2
2021/03/08 00:00:45;;;;;;;10.38;7.63;;;;;;;1.11;49.14;101270.00;6188632;23;20479;-73
2021/03/08 00:03:23;;;;;;;;;;;;;;;;;;;;;
2021/03/08 00:06:07;;;;;;;;;;;;;;;;;;;;;
2021/03/08 00:08:57;;;;;;;8.63;6.40;;;;;;;0.85;49.91;101249.69;6210510;23;20482;-73
2021/03/08 00:11:33;;;;;;;8.30;7.28;;;;;;;0.91;50.48;101277.75;6179972;23;20016;-73
2021/03/08 00:14:16;;;;;;;12.10;7.65;;;;;;;0.59;50.33;101246.56;6214015;23;20311;-73
2021/03/08 00:16:55;;;;;;;;;;;;;;;;;;;;;
2021/03/08 00:19:20;;;;;;;5.10;4.45;;;;;;;0.66;50.36;101274.44;6213073;23;20103;-74
2021/03/08 00:21:59;;;;;;;2.95;2.60;;;;;;;0.60;49.47;101264.34;6212678;23;20032;-73
2021/03/08 00:24:24;;;;;;;3.55;2.47;;;;;;;0.69;49.87;101279.44;6186039;23;20059;-74
2021/03/08 00:26:49;;;;;;;4.15;3.70;;;;;;;0.63;49.75;101261.34;6161249;23;20047;-74
2021/03/08 00:29:18;;;;;;;2.13;2.03;;;;;;;0.74;49.52;101277.03;6183315;23;20066;-74
2021/03/08 00:31:43;;;;;;;3.40;2.60;;;;;;;0.78;49.89;101286.44;6187370;23;20016;-73
2021/03/08 00:34:09;;;;;;;4.82;2.83;;;;;;;0.62;49.41;101256.94;6186149;23;20335;-73
2021/03/08 00:36:49;;;;;;;2.00;1.80;;;;;;;0.80;49.53;101281.69;6207776;23;20016;-75
2021/03/08 00:39:25;;;;;;;6.10;4.43;;;;;;;0.64;49.76;101260.28;6207855;23;20000;-74
2021/03/08 00:41:51;;;;;;;2.15;2.05;;;;;;;0.65;49.71;101264.66;6181401;23;20015;-74
2021/03/08 00:44:16;;;;;;;1.92;1.83;;;;;;;0.67;49.61;101259.94;6209363;23;20008;-73
2021/03/08 00:46:42;;;;;;;2.10;2.00;;;;;;;0.82;49.84;101285.06;6162971;23;20771;-74
2021/03/08 00:49:07;;;;;;;8.40;6.25;;;;;;;0.72;50.13;101268.31;6206451;23;20012;-72
2021/03/08 00:51:33;;;;;;;6.43;4.80;;;;;;;0.61;50.04;101271.41;6187664;23;20020;-73
2021/03/08 00:53:58;;;;;;;4.22;4.03;;;;;;;0.50;50.70;101265.44;6207619;23;20008;-73
2021/03/08 00:56:24;;;;;;;7.43;5.40;;;;;;;0.50;50.78;101265.44;6185483;23;20019;-74
2021/03/08 00:58:56;;;;;;;5.15;4.53;;;;;;;0.57;50.82;101275.47;6177221;23;20616;-72
2021/03/08 01:01:24;;;;;;;4.65;4.25;;;;;;;0.49;50.68;101266.44;6213818;23;19940;-75
2021/03/08 01:03:50;;;;;;;3.78;3.50;;;;;;;0.44;50.63;101250.00;6158654;23;20012;-74
2021/03/08 01:06:25;;;;;;;3.33;3.13;;;;;;;0.44;50.71;101247.31;6211801;23;20076;-72
2021/03/08 01:08:50;;;;;;;6.78;6.05;;;;;;;0.36;51.57;101233.91;6190365;23;20011;-73
2021/03/08 01:11:19;;;;;;;5.55;5.13;;;;;;;0.34;51.69;101233.28;6179739;23;20389;-72
2021/03/08 01:13:45;;;;;;;6.22;4.32;;;;;;;0.43;51.29;101253.72;6212441;23;20404;-75
2021/03/08 01:16:10;;;;;;;11.85;7.03;;;;;;;0.48;52.05;101256.72;6206977;23;20091;-74
2021/03/08 01:18:36;;;;;;;7.32;5.10;;;;;;;0.28;52.17;101250.97;6184173;23;20008;-73
2021/03/08 01:21:01;;;;;;;7.63;6.05;;;;;;;0.37;52.34;101265.19;6185385;23;20620;-72
2021/03/08 01:23:27;;;;;;;9.50;6.97;;;;;;;0.27;52.26;101253.84;6213723;23;20050;-73
2021/03/08 01:25:52;;;;;;;16.45;9.02;;;;;;;0.21;54.06;101246.47;6210231;23;20021;-73
2021/03/08 01:28:22;;;;;;;10.68;7.57;;;;;;;0.13;53.98;101236.56;6185871;23;20166;-73
2021/03/08 01:30:50;;;;;;;5.40;4.90;;;;;;;0.15;53.84;101235.41;6160991;23;20009;-73
2021/03/08 01:33:19;;;;;;;6.50;5.90;;;;;;;0.31;54.37;101250.59;6187766;23;19996;-73
2021/03/08 01:35:44;;;;;;;22.25;12.38;;;;;;;0.34;55.82;101244.03;6176523;23;20083;-73
2021/03/08 01:38:10;;;;;;;15.77;11.07;;;;;;;0.29;55.74;101233.81;6210028;23;20467;-73
2021/03/08 01:40:41;;;;;;;16.83;9.88;;;;;;;0.31;55.97;101233.63;6157936;23;20016;-73
2021/03/08 01:43:15;;;;;;;10.77;9.25;;;;;;;0.29;56.25;101225.75;6186429;23;20085;-73
2021/03/08 01:45:40;;;;;;;14.68;10.35;;;;;;;0.38;56.00;101239.13;6181083;23;20039;-72
2021/03/08 01:48:12;;;;;;;7.53;6.82;;;;;;;0.23;55.73;101222.91;6188072;23;20420;-73
2021/03/08 01:50:49;;;;;;;7.63;5.80;;;;;;;0.25;55.56;101228.94;6188214;22;20009;-72
2021/03/08 01:53:18;;;;;;;4.20;3.83;;;;;;;0.26;55.61;101219.84;6186695;23;19997;-74
2021/03/08 01:55:44;;;;;;;4.90;4.50;;;;;;;0.42;55.33;101235.06;6187003;23;20004;-73
2021/03/08 01:58:12;;;;;;;10.35;7.43;;;;;;;0.42;55.65;101219.72;6183744;23;20363;-71
2021/03/08 02:00:42;;;;;;;9.75;8.77;;;;;;;0.46;55.59;101214.84;6212911;23;20102;-72
2021/03/08 02:03:10;;;;;;;6.68;6.07;;;;;;;0.50;55.38;101219.69;6184242;23;20005;-73
2021/03/08 02:05:40;;;;;;;4.95;4.63;;;;;;;0.50;55.41;101208.91;6213520;23;20075;-74
2021/03/08 02:08:08;;;;;;;3.75;3.45;;;;;;;0.67;54.85;101212.31;6185807;23;20005;-73
2021/03/08 02:10:39;;;;;;;3.83;3.53;;;;;;;0.89;54.35;101225.09;6185260;23;20632;-73
2021/03/08 02:13:23;;;;;;;6.80;6.18;;;;;;;1.08;54.50;101219.19;6212778;23;20000;-73
2021/03/08 02:16:12;;;;;;;13.93;8.63;;;;;;;1.15;55.05;101214.72;6212603;23;20084;-73
2021/03/08 02:18:54;;;;;;;18.85;9.25;;;;;;;1.10;55.55;101200.16;6177345;23;20000;-74
2021/03/08 02:21:47;;;;;;;9.77;8.77;;;;;;;1.24;55.56;101218.16;6211118;23;20012;-73
2021/03/08 02:24:31;;;;;;;6.55;5.72;;;;;;;1.26;55.53;101199.97;6212371;23;20079;-74
2021/03/08 02:27:26;;;;;;;6.35;5.57;;;;;;;1.36;55.67;101191.63;6187342;23;20039;-74
2021/03/08 02:30:32;;;;;;;5.20;4.72;;;;;;;1.53;54.78;101200.31;6157824;23;20012;-73
2021/03/08 02:33:10;;;;;;;3.40;3.10;;;;;;;1.52;54.35;101177.94;6187491;23;20067;-72
2021/03/08 02:35:41;;;;;;;2.55;2.38;;;;;;;1.57;53.68;101180.06;6211521;23;20423;-74
2021/03/08 02:38:10;;;;;;;3.58;3.08;;;;;;;1.61;54.24;101172.41;6210585;23;20000;-74
2021/03/08 02:40:53;;;;;;;6.00;5.50;;;;;;;1.85;54.06;101188.28;6212143;23;20026;-74
2021/03/08 02:43:44;;;;;;;10.40;8.30;;;;;;;1.83;53.93;101201.13;6212523;23;20024;-74
2021/03/08 02:46:27;;;;;;;11.45;7.88;;;;;;;1.71;54.89;101171.13;6185229;23;20008;-73
2021/03/08 02:49:45;;;;;;;;;;;;;;;;;;;;;
2021/03/08 02:52:16;;;;;;;9.88;8.88;;;;;;;1.60;54.59;101151.91;6226696;22;20099;-73
2021/03/08 02:55:03;;;;;;;;;;;;;;;;;;;;;
2021/03/08 02:57:37;;;;;;;18.42;10.90;;;;;;;1.50;56.06;101173.75;6238501;23;20055;-72
2021/03/08 03:00:07;;;;;;;19.33;12.35;;;;;;;1.61;56.98;101185.91;6213985;23;20081;-71
2021/03/08 03:02:40;;;;;;;22.23;11.70;;;;;;;1.47;58.41;101177.66;6240973;23;20007;-72
2021/03/08 03:05:12;;;;;;;11.73;10.15;;;;;;;1.50;57.23;101182.66;6216250;23;20445;-72
2021/03/08 03:07:43;;;;;;;20.00;11.23;;;;;;;1.50;57.42;101173.75;6212718;23;19996;-72
2021/03/08 03:10:09;;;;;;;13.00;10.20;;;;;;;1.51;57.55;101181.63;6245406;23;20015;-70
2021/03/08 03:12:36;;;;;;;9.57;7.35;;;;;;;1.51;57.33;101180.81;6232651;23;20000;-71
2021/03/08 03:15:09;;;;;;;18.00;10.77;;;;;;;1.60;57.70;101173.47;6255864;23;20010;-72
2021/03/08 03:17:48;;;;;;;16.73;11.18;;;;;;;1.54;58.48;101164.25;6224028;23;20004;-71
2021/03/08 03:20:33;;;;;;;13.77;9.57;;;;;;;1.47;57.55;101163.34;6244868;23;20003;-71
2021/03/08 03:23:04;;;;;;;15.02;9.80;;;;;;;1.51;58.30;101165.47;6241942;23;20424;-71
2021/03/08 03:25:35;;;;;;;21.98;11.27;;;;;;;1.51;58.66;101164.63;6214354;23;20015;-72
2021/03/08 03:28:01;;;;;;;16.13;10.38;;;;;;;1.48;58.46;101165.03;6244452;23;20000;-72
2021/03/08 03:30:28;;;;;;;9.57;6.55;;;;;;;1.62;57.60;101182.19;6242086;23;20007;-72
2021/03/08 03:32:58;;;;;;;8.85;6.47;;;;;;;1.66;58.05;101178.09;6216572;23;20032;-73
2021/03/08 03:35:30;;;;;;;26.08;10.70;;;;;;;1.67;57.73;101166.28;6242139;23;20553;-74
2021/03/08 03:37:56;;;;;;;22.48;12.05;;;;;;;1.72;58.11;101169.25;6220769;23;20032;-74
2021/03/08 03:40:28;;;;;;;17.48;10.27;;;;;;;1.68;58.97;101167.94;6243628;23;20012;-74
2021/03/08 03:43:03;;;;;;;20.15;11.50;;;;;;;1.61;58.11;101164.31;6240143;23;20075;-74
2021/03/08 03:45:28;;;;;;;16.05;10.93;;;;;;;1.70;58.29;101168.59;6215867;23;20335;-74
2021/03/08 03:47:53;;;;;;;18.05;9.68;;;;;;;1.54;58.65;101154.31;6191703;23;20004;-74
2021/03/08 03:50:21;;;;;;;9.10;7.57;;;;;;;1.72;58.42;101186.28;6170862;22;20004;-73
2021/03/08 03:52:49;;;;;;;7.43;6.85;;;;;;;1.72;58.47;101166.53;6212449;23;20082;-73
2021/03/08 03:55:19;;;;;;;6.70;5.45;;;;;;;1.78;58.01;101159.56;6217380;23;20419;-74
2021/03/08 03:58:08;;;;;;;9.00;7.85;;;;;;;1.90;58.18;101171.53;6239828;23;20004;-74
2021/03/08 04:00:43;;;;;;;16.23;9.88;;;;;;;1.82;58.06;101153.59;6245453;23;20067;-72
2021/03/08 04:03:19;;;;;;;14.60;8.52;;;;;;;1.79;57.70;101151.28;6215123;23;20000;-73
2021/03/08 04:06:00;;;;;;;;;;;;;;;;;;;;;
2021/03/08 04:08:37;;;;;;;;;;;;;;;;;;;;;
2021/03/08 04:11:08;;;;;;;10.48;8.73;;;;;;;1.65;58.38;101146.75;6245198;23;20060;-73
2021/03/08 04:13:36;;;;;;;16.67;9.68;;;;;;;1.53;59.37;101139.19;6216214;23;20035;-73
2021/03/08 04:16:08;;;;;;;16.23;10.07;;;;;;;1.66;59.53;101167.31;6245525;23;20019;-75
2021/03/08 04:18:42;;;;;;;21.98;11.15;;;;;;;1.48;59.65;101133.50;6239319;23;20034;-72
2021/03/08 04:21:31;;;;;;;21.45;11.10;;;;;;;1.59;60.53;101155.59;6244784;23;20016;-73
2021/03/08 04:24:00;;;;;;;21.45;11.80;;;;;;;1.51;60.36;101141.22;6243909;23;20114;-74
2021/03/08 04:26:47;;;;;;;23.45;12.40;;;;;;;1.40;61.50;101120.13;6238732;23;20000;-74
2021/03/08 04:29:19;;;;;;;21.38;12.77;;;;;;;1.37;60.95;101126.75;6213662;23;20000;-73
2021/03/08 04:31:45;;;;;;;19.75;12.07;;;;;;;1.35;61.25;101128.78;6245693;23;19996;-74
2021/03/08 04:34:12;;;;;;;19.48;11.73;;;;;;;1.28;61.96;101121.63;6190432;23;20024;-73
2021/03/08 04:36:39;;;;;;;19.92;12.00;;;;;;;1.28;62.00;101127.03;6245163;23;20308;-74
2021/03/08 04:39:05;;;;;;;22.95;11.45;;;;;;;1.32;62.32;101134.53;6242261;23;20035;-73
2021/03/08 04:41:43;;;;;;;19.15;11.05;;;;;;;1.32;62.14;101139.09;6169261;23;20016;-73
2021/03/08 04:44:11;;;;;;;13.10;7.95;;;;;;;1.32;61.74;101153.41;6193322;23;20057;-73
2021/03/08 04:46:43;;;;;;;5.85;5.40;;;;;;;1.53;61.68;101179.59;6215792;23;20022;-72
2021/03/08 04:49:17;;;;;;;3.70;3.50;;;;;;;1.51;60.62;101160.06;6243408;23;20419;-71
2021/03/08 04:51:50;;;;;;;3.83;3.50;;;;;;;1.61;60.31;101151.69;6216390;23;20346;-73
2021/03/08 04:54:18;;;;;;;3.85;3.63;;;;;;;1.69;59.70;101162.34;6238442;23;20032;-73
2021/03/08 04:56:46;;;;;;;4.65;4.25;;;;;;;1.76;59.81;101157.06;6219738;23;20004;-73
2021/03/08 04:59:12;;;;;;;4.55;4.25;;;;;;;1.83;59.54;101163.38;6216768;23;20014;-73
2021/03/08 05:01:43;;;;;;;3.67;3.40;;;;;;;1.78;59.24;101160.38;6219118;23;20087;-72
2021/03/08 05:04:08;;;;;;;5.80;2.88;;;;;;;1.74;58.69;101159.13;6217453;23;20062;-71
2021/03/08 05:06:45;;;;;;;2.08;1.88;;;;;;;1.65;58.94;101168.31;6209590;23;20012;-73
2021/03/08 05:09:14;;;;;;;1.88;1.77;;;;;;;1.54;58.54;101173.16;6213007;23;20019;-71
2021/03/08 05:11:46;;;;;;;2.17;2.08;;;;;;;1.34;58.84;101164.00;6235474;23;20003;-72
2021/03/08 05:14:16;;;;;;;4.55;2.40;;;;;;;1.31;57.97;101169.75;6216453;23;20299;-71
2021/03/08 05:16:46;;;;;;;2.20;2.10;;;;;;;1.13;58.89;101156.69;6215679;23;20082;-72
2021/03/08 05:19:23;;;;;;;1.85;1.75;;;;;;;1.06;58.59;101161.94;6214760;23;20004;-72
2021/03/08 05:22:00;;;;;;;;;;;;;;;;;;;;;
2021/03/08 05:24:27;;;;;;;1.52;1.42;;;;;;;1.02;58.48;101172.28;6238315;23;20079;-72
2021/03/08 05:26:53;;;;;;;2.13;1.20;;;;;;;0.95;58.60;101181.25;6237851;23;20008;-73
2021/03/08 05:29:19;;;;;;;1.50;1.40;;;;;;;0.92;58.80;101181.63;6242895;23;20443;-72
2021/03/08 05:31:49;;;;;;;1.27;1.20;;;;;;;0.79;58.93;101171.47;6215687;23;19996;-72
2021/03/08 05:34:18;;;;;;;2.17;1.45;;;;;;;0.81;59.14;101175.66;6239047;23;20008;-72
2021/03/08 05:36:55;;;;;;;6.07;4.80;;;;;;;0.75;59.70;101159.44;6215321;23;20323;-73
2021/03/08 05:39:24;;;;;;;6.70;6.00;;;;;;;0.78;60.25;101169.81;6215446;23;20000;-71
2021/03/08 05:42:15;;;;;;;7.68;6.35;;;;;;;0.86;60.34;101181.34;6213438;23;20008;-73
2021/03/08 05:45:00;;;;;;;8.18;7.38;;;;;;;0.82;60.35;101185.44;6242133;23;20050;-72
2021/03/08 05:47:57;;;;;;;5.82;5.30;;;;;;;0.73;59.91;101175.78;6240423;23;19996;-70
2021/03/08 05:50:50;;;;;;;5.25;4.30;;;;;;;0.69;59.23;101171.75;6209039;22;20082;-72
2021/03/08 05:53:25;;;;;;;4.13;3.85;;;;;;;0.66;60.09;101167.56;6178640;23;20056;-73
2021/03/08 05:56:12;;;;;;;2.63;2.53;;;;;;;0.73;59.73;101177.59;6208672;23;20046;-72
2021/03/08 05:59:07;;;;;;;3.22;3.03;;;;;;;0.59;59.72;101155.84;6203547;23;20012;-72
2021/03/08 06:01:54;;;;;;;2.90;2.70;;;;;;;0.63;59.94;101170.63;6208896;23;20075;-73
2021/03/08 06:04:40;;;;;;;3.42;3.20;;;;;;;0.61;59.73;101182.59;6212852;23;20027;-73
2021/03/08 06:07:24;;;;;;;4.90;4.50;;;;;;;0.56;60.03;101182.31;6209672;23;20008;-73
2021/03/08 06:10:06;;;;;;;8.13;5.60;;;;;;;0.41;60.53;101158.03;6186511;23;20000;-73
2021/03/08 06:12:40;;;;;;;5.75;4.60;;;;;;;0.49;60.90;101177.63;6184083;23;20012;-73
2021/03/08 06:15:19;;;;;;;3.38;3.17;;;;;;;0.41;60.25;101166.97;6214787;23;20007;-72
2021/03/08 06:17:50;;;;;;;2.90;2.65;;;;;;;0.39;60.67;101160.91;6184366;23;20004;-72
2021/03/08 06:20:22;;;;;;;2.55;2.35;;;;;;;0.37;60.36;101165.63;6184318;23;20040;-71
2021/03/08 06:22:56;;;;;;;2.72;2.53;;;;;;;0.46;60.41;101174.47;6183003;23;20730;-72
2021/03/08 06:25:43;;;;;;;;;;;;;;;;;;;;;
2021/03/08 06:28:09;;;;;;;1.50;1.40;;;;;;;0.40;60.04;101167.13;6200851;23;20060;-72
2021/03/08 06:30:35;;;;;;;1.13;1.10;;;;;;;0.50;59.91;101184.69;6185697;23;20000;-73
2021/03/08 06:33:11;;;;;;;1.30;1.20;;;;;;;0.37;60.05;101168.31;6183219;23;20331;-70
2021/03/08 06:35:39;;;;;;;1.38;1.27;;;;;;;0.41;60.12;101180.41;6185074;23;20032;-71
2021/03/08 06:38:18;;;;;;;2.40;2.22;;;;;;;0.40;60.00;101184.09;6183855;23;20475;-72
2021/03/08 06:40:45;;;;;;;3.92;3.72;;;;;;;0.41;60.23;101191.19;6208454;23;20004;-70
2021/03/08 06:43:23;;;;;;;2.78;2.50;;;;;;;0.44;60.38;101185.44;6187920;23;20095;-72
2021/03/08 06:45:49;;;;;;;2.15;2.05;;;;;;;0.43;60.52;101178.38;6215552;23;20007;-72
2021/03/08 06:48:14;;;;;;;2.30;2.20;;;;;;;0.57;60.41;101194.72;6215181;23;20079;-72
2021/03/08 06:50:40;;;;;;;2.97;2.83;;;;;;;0.60;60.31;101197.06;6187390;22;20055;-73
2021/03/08 06:53:06;;;;;;;3.92;3.63;;;;;;;0.64;60.53;101201.06;6215326;23;20328;-73
2021/03/08 06:55:34;;;;;;;3.15;2.95;;;;;;;0.54;60.89;101184.34;6244544;23;20087;-70
2021/03/08 06:58:17;;;;;;;3.53;3.22;;;;;;;0.61;60.57;101187.97;6213782;23;20825;-74
2021/03/08 07:00:43;;;;;;;3.20;2.13;;;;;;;0.60;60.47;101183.59;6215960;23;20012;-74
2021/03/08 07:03:29;;;;;;;2.50;2.33;;;;;;;0.77;60.52;101203.97;6191523;23;20008;-74
2021/03/08 07:05:56;;;;;;;;;;;;;;;0.79;60.48;101209.19;6242966;23;20011;-73
2021/03/08 07:08:23;;;;;;;1.83;1.73;;;;;;;0.75;60.03;101202.50;6244299;23;19911;-73
2021/03/08 07:10:49;;;;;;;1.88;1.77;;;;;;;0.86;60.33;101215.50;6220881;23;20416;-74
2021/03/08 07:13:14;;;;;;;1.20;1.05;;;;;;;0.82;60.20;101206.97;6237832;23;20031;-74
2021/03/08 07:15:58;;;;;;;1.33;1.23;;;;;;;0.94;60.23;101217.31;6192815;23;20057;-73
2021/03/08 07:18:25;;;;;;;1.40;1.30;;;;;;;0.89;60.04;101198.16;6245241;23;20023;-75
2021/03/08 07:20:54;;;;;;;0.82;0.73;;;;;;;0.86;60.45;101194.81;6191978;23;20099;-72
2021/03/08 07:23:24;;;;;;;1.30;1.20;;;;;;;1.04;59.61;101223.28;6243127;23;20000;-74
2021/03/08 07:26:11;;;;;;;1.23;1.23;;;;;;;1.14;59.73;101225.69;6236948;23;20007;-76
2021/03/08 07:28:38;;;;;;;0.85;0.85;;;;;;;1.21;59.86;101240.09;6217600;23;20047;-75
2021/03/08 07:31:04;;;;;;;0.88;0.88;;;;;;;1.29;59.53;101228.41;6215662;23;20000;-72
2021/03/08 07:33:30;;;;;;;0.77;0.77;;;;;;;1.41;59.38;101235.00;6241150;23;20011;-72
2021/03/08 07:35:55;;;;;;;1.38;0.63;;;;;;;1.45;59.48;101228.22;6242244;23;20007;-70
2021/03/08 07:38:27;;;;;;;1.80;1.70;;;;;;;1.65;59.36;101243.81;6244561;23;20004;-72
2021/03/08 07:41:09;;;;;;;1.58;1.27;;;;;;;1.80;59.67;101238.44;6212901;23;20008;-72
2021/03/08 07:43:35;;;;;;;2.08;1.60;;;;;;;1.96;59.22;101242.75;6243628;23;20031;-72
2021/03/08 07:46:01;;;;;;;2.92;2.63;;;;;;;2.09;59.39;101241.06;6242138;23;20307;-72
2021/03/08 07:48:26;;;;;;;7.00;4.75;;;;;;;2.20;58.98;101239.72;6211040;23;20751;-72
2021/03/08 07:50:53;;;;;;;6.68;6.05;;;;;;;2.32;59.75;101242.75;6242548;22;20046;-71
2021/03/08 07:53:27;;;;;;;7.68;7.05;;;;;;;2.44;59.83;101240.41;6241096;23;20000;-71
2021/03/08 07:55:54;;;;;;;6.47;5.97;;;;;;;2.55;59.37;101242.56;6215757;23;20007;-71
2021/03/08 07:58:20;;;;;;;4.15;3.80;;;;;;;2.86;59.82;101233.31;6215714;23;20090;-70
2021/03/08 08:00:48;;;;;;;4.47;4.18;;;;;;;3.06;59.32;101214.53;6238865;23;20415;-71
2021/03/08 08:03:15;;;;;;;5.82;4.78;;;;;;;3.60;57.96;101245.44;6216022;23;20032;-72
2021/03/08 08:05:41;;;;;;;6.93;6.38;;;;;;;3.81;57.95;101249.09;6215063;23;20015;-71
2021/03/08 08:08:08;;;;;;;13.65;7.57;;;;;;;3.90;57.30;101256.03;6226212;23;20020;-71
2021/03/08 08:10:33;;;;;;;7.70;6.40;;;;;;;3.99;57.24;101260.22;6258078;23;20007;-71
2021/03/08 08:13:03;;;;;;;7.05;6.55;;;;;;;4.23;58.54;101260.72;6207436;23;20032;-72
2021/03/08 08:15:31;;;;;;;6.93;6.07;;;;;;;4.48;57.23;101249.31;6248944;23;20374;-76
2021/03/08 08:17:59;;;;;;;5.60;5.13;;;;;;;4.67;56.92;101250.38;6214583;23;20011;-74
2021/03/08 08:20:30;;;;;;;6.07;5.47;;;;;;;4.88;56.85;101241.25;6244122;23;20004;-72
2021/03/08 08:22:55;;;;;;;5.18;4.78;;;;;;;5.04;56.21;101245.41;6210531;23;20015;-74
2021/03/08 08:25:36;;;;;;;;;;;;;;;;;;;;;
2021/03/08 08:28:05;;;;;;;4.78;4.38;;;;;;;5.61;55.77;101245.75;6232415;23;20086;-73
2021/03/08 08:30:30;;;;;;;6.88;5.38;;;;;;;5.76;55.47;101249.03;6243942;23;20007;-71
2021/03/08 08:32:59;;;;;;;7.07;5.22;;;;;;;5.92;55.36;101241.47;6241668;23;20004;-72
2021/03/08 08:35:30;;;;;;;5.28;4.93;;;;;;;6.10;54.74;101241.63;6234293;23;20058;-73
2021/03/08 08:38:20;;;;;;;4.75;4.20;;;;;;;6.54;54.94;101243.66;6215442;23;20011;-72
2021/03/08 08:41:20;;;;;;;2.70;2.60;;;;;;;6.99;54.63;101257.16;6233255;23;20062;-72
2021/03/08 08:43:50;;;;;;;4.13;2.72;;;;;;;7.31;53.75;101248.91;6215012;23;20012;-72
2021/03/08 08:46:24;;;;;;;2.65;2.15;;;;;;;7.76;53.77;101237.75;6242355;23;20000;-72
2021/03/08 08:49:07;;;;;;;3.17;2.25;;;;;;;8.89;54.94;101253.63;6236378;23;20000;-73
2021/03/08 08:51:51;;;;;;;1.83;1.73;;;;;;;10.03;53.39;101257.03;6243190;22;20769;-71
2021/03/08 08:54:28;;;;;;;1.13;1.10;;;;;;;10.73;51.83;101260.56;6240707;23;20031;-72
2021/03/08 08:56:57;;;;;;;2.10;2.00;;;;;;;11.42;50.16;101262.22;6239727;23;20071;-72
2021/03/08 08:59:23;;;;;;;4.15;3.92;;;;;;;12.16;48.22;101252.81;6213605;23;20027;-73
2021/03/08 09:01:49;;;;;;;4.80;3.65;;;;;;;12.67;46.48;101271.75;6241745;23;20415;-74
2021/03/08 09:04:19;;;;;;;4.07;3.78;;;;;;;12.77;44.97;101266.34;6231858;23;20828;-71
2021/03/08 09:07:00;;;;;;;3.90;3.70;;;;;;;12.88;44.62;101270.03;6235795;23;20015;-71
2021/03/08 09:09:31;;;;;;;5.50;5.10;;;;;;;13.02;43.87;101268.47;6212096;23;20065;-74
2021/03/08 09:12:06;;;;;;;4.88;4.55;;;;;;;13.15;43.13;101260.91;6237790;23;20054;-72
2021/03/08 09:14:55;;;;;;;5.30;4.40;;;;;;;13.22;42.19;101261.50;6240830;23;20360;-72
2021/03/08 09:17:26;;;;;;;5.18;4.78;;;;;;;13.10;41.99;101259.78;6192291;23;20031;-73
2021/03/08 09:19:55;;;;;;;5.22;4.80;;;;;;;12.96;41.22;101266.78;6212675;23;20393;-73
2021/03/08 09:22:25;;;;;;;3.55;3.25;;;;;;;12.86;41.27;101272.19;6240528;23;20027;-74
2021/03/08 09:24:52;;;;;;;4.78;4.47;;;;;;;12.75;41.21;101266.59;6210419;23;20074;-73
2021/03/08 09:27:35;;;;;;;10.30;6.80;;;;;;;12.63;39.74;101265.94;6239757;23;20322;-74
2021/03/08 09:30:06;;;;;;;6.90;6.30;;;;;;;12.35;40.08;101265.13;6236996;23;20123;-73
2021/03/08 09:32:34;;;;;;;10.52;8.27;;;;;;;12.11;40.14;101274.69;6239857;23;20019;-72
2021/03/08 09:35:10;;;;;;;11.93;5.85;;;;;;;11.81;40.56;101254.00;6206271;23;20004;-70
2021/03/08 09:37:38;;;;;;;9.32;6.45;;;;;;;11.99;40.93;101256.47;6240874;23;20000;-72
2021/03/08 09:40:05;;;;;;;6.03;5.45;;;;;;;12.33;41.03;101259.03;6240995;23;20007;-73
2021/03/08 09:42:35;;;;;;;4.78;4.30;;;;;;;13.27;42.05;101258.78;6238965;23;20038;-73
2021/03/08 09:45:01;;;;;;;3.67;3.45;;;;;;;14.41;40.63;101260.19;6214492;23;20050;-74
2021/03/08 09:47:40;;;;;;;5.57;5.07;;;;;;;15.17;38.57;101242.94;6213092;23;20008;-73
2021/03/08 09:50:07;;;;;;;4.43;4.03;;;;;;;15.64;36.65;101259.41;6229169;23;20026;-73
2021/03/08 09:52:41;;;;;;;6.43;5.65;;;;;;;15.82;36.50;101256.03;6242522;22;20034;-75
2021/03/08 09:55:11;;;;;;;5.28;4.85;;;;;;;15.65;35.43;101250.00;6241044;23;20074;-73
2021/03/08 09:57:41;;;;;;;5.20;3.85;;;;;;;16.39;36.48;101248.31;6242586;23;20007;-72
2021/03/08 10:00:18;;;;;;;4.20;3.80;;;;;;;16.83;35.29;101251.34;6232865;23;20015;-72
2021/03/08 10:02:43;;;;;;;6.53;6.03;;;;;;;17.16;34.92;101260.78;6243898;23;20056;-69
2021/03/08 10:05:12;;;;;;;5.47;5.07;;;;;;;17.36;33.63;101265.31;6204382;23;20089;-71
2021/03/08 10:07:53;;;;;;;6.50;5.97;;;;;;;17.66;33.44;101251.44;6241515;23;20062;-73
2021/03/08 10:10:22;;;;;;;6.55;5.32;;;;;;;17.85;32.35;101249.53;6208701;23;20064;-74
2021/03/08 10:13:03;;;;;;;6.07;5.57;;;;;;;18.46;31.99;101242.41;6237640;23;20006;-76
2021/03/08 10:15:45;;;;;;;6.72;6.20;;;;;;;19.01;30.86;101247.38;6238050;23;20000;-74
2021/03/08 10:18:22;;;;;;;5.72;5.45;;;;;;;19.62;29.14;101261.25;6213609;23;20058;-73
2021/03/08 10:20:57;;;;;;;7.63;6.60;;;;;;;19.42;28.55;101237.53;6210623;23;20083;-73
2021/03/08 10:23:30;;;;;;;4.43;4.23;;;;;;;19.89;29.82;101248.56;6215199;23;20083;-74
2021/03/08 10:26:09;;;;;;;10.30;5.72;;;;;;;20.36;27.94;101251.97;6236838;23;20008;-74
2021/03/08 10:28:50;;;;;;;6.15;5.68;;;;;;;20.31;27.68;101243.78;6238681;23;20004;-74
2021/03/08 10:31:29;;;;;;;5.32;4.90;;;;;;;20.71;27.51;101251.50;6238436;23;20069;-74
2021/03/08 10:33:57;;;;;;;5.65;5.22;;;;;;;20.62;27.47;101250.56;6239376;23;20581;-73
2021/03/08 10:36:35;;;;;;;3.47;3.20;;;;;;;20.75;28.30;101246.97;6207252;23;20012;-73
2021/03/08 10:39:10;;;;;;;3.33;3.13;;;;;;;21.55;28.54;101254.66;6241139;23;20031;-73
2021/03/08 10:41:36;;;;;;;;;;;;;;;22.88;28.63;101254.56;6206422;23;20047;-73
2021/03/08 10:44:03;;;;;;;3.00;2.80;;;;;;;23.55;26.72;101243.94;6242824;23;19904;-74
2021/03/08 10:46:30;;;;;;;3.10;2.90;;;;;;;23.70;26.54;101251.75;6240251;23;20366;-73
2021/03/08 10:49:02;;;;;;;3.13;2.47;;;;;;;24.26;26.30;101245.22;6213507;23;20036;-73
2021/03/08 10:51:29;;;;;;;3.45;3.25;;;;;;;24.52;25.31;101245.84;6233289;22;20091;-73
2021/03/08 10:54:04;;;;;;;4.30;4.00;;;;;;;24.98;24.23;101251.53;6211466;23;20337;-73
2021/03/08 10:56:34;;;;;;;4.25;3.90;;;;;;;24.35;23.18;101240.38;6207699;23;20031;-74
2021/03/08 10:59:00;;;;;;;5.20;4.72;;;;;;;24.11;23.29;101241.88;6239346;23;20046;-73
2021/03/08 11:01:30;;;;;;;5.00;4.70;;;;;;;24.25;23.37;101251.97;6214046;23;20016;-71
2021/03/08 11:03:58;;;;;;;3.80;3.50;;;;;;;24.78;23.97;101252.38;6238782;23;20023;-72
2021/03/08 11:06:24;;;;;;;3.17;2.97;;;;;;;25.07;23.58;101255.06;6238686;23;20004;-72
2021/03/08 11:08:57;;;;;;;5.38;3.28;;;;;;;25.74;23.47;101251.34;6235245;23;20023;-71
2021/03/08 11:11:29;;;;;;;4.47;4.22;;;;;;;26.18;21.76;101245.16;6213063;23;20008;-72
2021/03/08 11:14:00;;;;;;;3.83;2.85;;;;;;;26.74;22.62;101250.06;6211097;23;20011;-72
2021/03/08 11:16:36;;;;;;;;;;;;;;;;;;;;;
2021/03/08 11:19:22;;;;;;;4.40;4.20;;;;;;;27.38;20.38;101241.78;6238093;23;20087;-72
2021/03/08 11:22:25;;;;;;;;;;;;;;;;;;;;;
2021/03/08 11:24:59;;;;;;;1.95;1.85;;;;;;;27.81;21.06;101237.25;6237171;23;20071;-74
2021/03/08 11:28:00;;;;;;;;;;;;;;;;;;;;;
2021/03/08 11:30:36;;;;;;;1.60;1.60;;;;;;;30.24;20.29;101245.16;6234891;23;20071;-73
2021/03/08 11:33:07;;;;;;;1.70;1.60;;;;;;;31.43;19.67;101254.22;6242880;23;20011;-74
2021/03/08 11:35:56;;;;;;;2.28;2.17;;;;;;;32.22;18.35;101249.19;6210738;23;20015;-75
2021/03/08 11:38:28;;;;;;;2.65;1.02;;;;;;;32.21;18.05;101239.06;6216193;23;20058;-72
2021/03/08 11:40:59;;;;;;;4.63;4.22;;;;;;;31.92;15.72;101223.91;6205048;23;20004;-73
2021/03/08 11:43:25;;;;;;;4.57;4.30;;;;;;;31.90;15.39;101240.47;6215839;23;20008;-74
2021/03/08 11:45:56;;;;;;;1.52;1.38;;;;;;;31.65;16.70;101222.13;6214847;23;20011;-73
2021/03/08 11:48:28;;;;;;;1.10;1.10;;;;;;;32.32;16.95;101247.63;6201671;23;20008;-73
2021/03/08 11:51:19;;;;;;;;;;;;;;;;;;;;;
2021/03/08 11:53:47;;;;;;;2.03;1.92;;;;;;;32.47;16.31;101232.31;6243465;23;20094;-74
2021/03/08 11:56:12;;;;;;;2.78;2.58;;;;;;;32.41;15.14;101233.13;6188691;23;20012;-75
2021/03/08 11:58:57;;;;;;;;;;;;;;;;;;;;;
2021/03/08 12:01:36;;;;;;;;;;;;;;;;;;;;;
2021/03/08 12:04:24;;;;;;;2.85;2.15;;;;;;;31.01;15.28;101230.81;6244238;23;20087;-74
2021/03/08 12:06:53;;;;;;;1.80;1.70;;;;;;;30.73;14.51;101209.50;6208884;23;20028;-73
2021/03/08 12:09:19;;;;;;;0.77;0.77;;;;;;;30.77;15.24;101224.47;6215766;23;20487;-72
2021/03/08 12:11:45;;;;;;;0.90;0.90;;;;;;;31.32;15.29;101217.38;6239155;23;20054;-70
2021/03/08 12:14:37;;;;;;;1.00;0.82;;;;;;;31.96;15.05;101213.44;6210078;23;20099;-73
2021/03/08 12:17:02;;;;;;;0.40;0.40;;;;;;;32.04;15.07;101209.47;6225180;23;20004;-74